ARG1653 SAZN-SABE
Flight info
| Callsign | ARG1653 |
|---|---|
| Flight time | 1h 25m |
| Altitude | 33000 |
| Route | NIDBA3C NIDBA DCT ISMIL UT655 ASADA ASADA8Q |
| Aircraft | B738/M-SDE2E3FGHIRWXY/LB1 |
Departure
| Time | 2026-04-16 04:03 |
|---|---|
| Airport | Presidente Perón International Airport (SAZN) |
Arrival
| Time | 2026-04-16 05:29 |
|---|---|
| Airport | Aeroparque Jorge Newbery (SABE) |
| Time | Latitude | Longitude | Altitude | Speed | Heading |
|---|---|---|---|---|---|
| 2026-04-16 03:03 | -38.95156 | -68.14158 | 903 ft | 0 kts | 181° |
| 2026-04-16 03:54 | -38.95154 | -68.14158 | 903 ft | 2 kts | 181° |
| 2026-04-16 03:55 | -38.95129 | -68.14158 | 904 ft | 4 kts | 181° |
| 2026-04-16 03:55 | -38.95107 | -68.14157 | 906 ft | 0 kts | 181° |
| 2026-04-16 03:57 | -38.95108 | -68.14157 | 906 ft | 0 kts | 181° |
| 2026-04-16 03:59 | -38.95109 | -68.14157 | 905 ft | 1 kts | 178° |
| 2026-04-16 03:59 | -38.95109 | -68.14146 | 907 ft | 2 kts | 69° |
| 2026-04-16 04:00 | -38.95082 | -68.14115 | 905 ft | 7 kts | 18° |
| 2026-04-16 04:00 | -38.95051 | -68.14114 | 903 ft | 0 kts | 359° |
| 2026-04-16 04:02 | -38.95049 | -68.14114 | 903 ft | 1 kts | 359° |
| 2026-04-16 04:02 | -38.95026 | -68.14115 | 903 ft | 6 kts | 359° |
| 2026-04-16 04:02 | -38.94963 | -68.14115 | 904 ft | 10 kts | 0° |
| 2026-04-16 04:02 | -38.94907 | -68.14154 | 905 ft | 11 kts | 285° |
| 2026-04-16 04:03 | -38.94903 | -68.14398 | 904 ft | 61 kts | 270° |
| 2026-04-16 04:03 | -38.94901 | -68.15285 | 901 ft | 135 kts | 270° |
| 2026-04-16 04:03 | -38.94890 | -68.16738 | 1084 ft | 180 kts | 270° |
| 2026-04-16 04:03 | -38.94877 | -68.18335 | 2020 ft | 180 kts | 273° |
| 2026-04-16 04:04 | -38.94868 | -68.19984 | 2848 ft | 186 kts | 275° |
| 2026-04-16 04:04 | -38.94860 | -68.21714 | 3479 ft | 201 kts | 275° |
| 2026-04-16 04:04 | -38.94855 | -68.23553 | 3999 ft | 211 kts | 276° |
| 2026-04-16 04:04 | -38.94824 | -68.25470 | 4575 ft | 218 kts | 278° |
| 2026-04-16 04:05 | -38.94787 | -68.27457 | 5130 ft | 226 kts | 276° |
| 2026-04-16 04:05 | -38.94767 | -68.29516 | 5654 ft | 235 kts | 281° |
| 2026-04-16 04:05 | -38.94114 | -68.31492 | 5928 ft | 252 kts | 315° |
| 2026-04-16 04:05 | -38.92630 | -68.32723 | 6571 ft | 262 kts | 342° |
| 2026-04-16 04:06 | -38.90801 | -68.32888 | 7336 ft | 270 kts | 8° |
| 2026-04-16 04:06 | -38.89054 | -68.31918 | 8103 ft | 283 kts | 34° |
| 2026-04-16 04:06 | -38.87770 | -68.29940 | 8807 ft | 299 kts | 61° |
| 2026-04-16 04:06 | -38.87089 | -68.27373 | 9539 ft | 308 kts | 72° |
| 2026-04-16 04:07 | -38.86531 | -68.24677 | 10219 ft | 316 kts | 72° |
| 2026-04-16 04:07 | -38.85327 | -68.19222 | 11740 ft | 320 kts | 71° |
| 2026-04-16 04:07 | -38.84667 | -68.16490 | 12501 ft | 322 kts | 70° |
| 2026-04-16 04:08 | -38.83990 | -68.13738 | 13261 ft | 325 kts | 70° |
| 2026-04-16 04:08 | -38.83316 | -68.10943 | 13841 ft | 336 kts | 71° |
| 2026-04-16 04:08 | -38.82643 | -68.07970 | 13976 ft | 358 kts | 72° |
| 2026-04-16 04:08 | -38.81944 | -68.04805 | 14160 ft | 378 kts | 72° |
| 2026-04-16 04:09 | -38.81221 | -68.01516 | 14583 ft | 387 kts | 73° |
| 2026-04-16 04:09 | -38.80485 | -67.98176 | 15204 ft | 390 kts | 73° |
| 2026-04-16 04:09 | -38.79743 | -67.94826 | 15876 ft | 392 kts | 73° |
| 2026-04-16 04:09 | -38.78992 | -67.91448 | 16508 ft | 395 kts | 73° |
| 2026-04-16 04:10 | -38.78231 | -67.88045 | 17107 ft | 399 kts | 73° |
| 2026-04-16 04:10 | -38.77462 | -67.84615 | 17696 ft | 403 kts | 73° |
| 2026-04-16 04:10 | -38.76684 | -67.81149 | 18297 ft | 406 kts | 73° |
| 2026-04-16 04:10 | -38.75899 | -67.77658 | 18802 ft | 409 kts | 73° |
| 2026-04-16 04:11 | -38.75106 | -67.74140 | 19341 ft | 412 kts | 73° |
| 2026-04-16 04:11 | -38.74309 | -67.70609 | 19877 ft | 414 kts | 73° |
| 2026-04-16 04:11 | -38.73506 | -67.67052 | 20409 ft | 417 kts | 73° |
| 2026-04-16 04:11 | -38.72697 | -67.63473 | 20928 ft | 420 kts | 73° |
| 2026-04-16 04:12 | -38.71880 | -67.59871 | 21431 ft | 423 kts | 73° |
| 2026-04-16 04:12 | -38.70974 | -67.56281 | 21912 ft | 425 kts | 66° |
| 2026-04-16 04:12 | -38.69701 | -67.52876 | 22407 ft | 427 kts | 62° |
| 2026-04-16 04:12 | -38.68291 | -67.49515 | 22877 ft | 430 kts | 60° |
| 2026-04-16 04:13 | -38.66842 | -67.46152 | 23338 ft | 433 kts | 60° |
| 2026-04-16 04:13 | -38.65386 | -67.42762 | 23747 ft | 436 kts | 61° |
| 2026-04-16 04:13 | -38.63919 | -67.39294 | 24149 ft | 439 kts | 61° |
| 2026-04-16 04:13 | -38.62479 | -67.35847 | 24560 ft | 440 kts | 62° |
| 2026-04-16 04:14 | -38.61045 | -67.32379 | 24956 ft | 442 kts | 62° |
| 2026-04-16 04:14 | -38.59628 | -67.28937 | 25335 ft | 444 kts | 62° |
| 2026-04-16 04:14 | -38.58165 | -67.25377 | 25720 ft | 447 kts | 62° |
| 2026-04-16 04:14 | -38.56736 | -67.21902 | 26085 ft | 449 kts | 62° |
| 2026-04-16 04:15 | -38.55260 | -67.18317 | 26447 ft | 451 kts | 62° |
| 2026-04-16 04:15 | -38.53797 | -67.14769 | 26797 ft | 453 kts | 62° |
| 2026-04-16 04:15 | -38.52321 | -67.11192 | 27148 ft | 456 kts | 62° |
| 2026-04-16 04:15 | -38.50838 | -67.07608 | 27487 ft | 458 kts | 62° |
| 2026-04-16 04:16 | -38.49351 | -67.04015 | 27815 ft | 460 kts | 62° |
| 2026-04-16 04:16 | -38.47853 | -67.00402 | 28142 ft | 462 kts | 62° |
| 2026-04-16 04:16 | -38.46347 | -66.96773 | 28464 ft | 464 kts | 62° |
| 2026-04-16 04:16 | -38.44831 | -66.93123 | 28779 ft | 466 kts | 62° |
| 2026-04-16 04:17 | -38.43330 | -66.89515 | 29090 ft | 468 kts | 62° |
| 2026-04-16 04:17 | -38.41801 | -66.85844 | 29407 ft | 470 kts | 62° |
| 2026-04-16 04:17 | -38.40269 | -66.82168 | 29803 ft | 469 kts | 62° |
| 2026-04-16 04:17 | -38.38740 | -66.78505 | 30246 ft | 467 kts | 62° |
| 2026-04-16 04:18 | -38.37218 | -66.74861 | 30649 ft | 465 kts | 62° |
| 2026-04-16 04:18 | -38.35699 | -66.71228 | 30983 ft | 464 kts | 62° |
| 2026-04-16 04:18 | -38.34159 | -66.67551 | 31304 ft | 464 kts | 62° |
| 2026-04-16 04:18 | -38.32637 | -66.63925 | 31636 ft | 464 kts | 61° |
| 2026-04-16 04:19 | -38.31116 | -66.60309 | 31990 ft | 463 kts | 61° |
| 2026-04-16 04:19 | -38.29617 | -66.56751 | 32336 ft | 462 kts | 61° |
| 2026-04-16 04:19 | -38.28078 | -66.53105 | 32647 ft | 461 kts | 61° |
| 2026-04-16 04:19 | -38.26561 | -66.49510 | 32951 ft | 461 kts | 61° |
| 2026-04-16 04:20 | -38.23522 | -66.42322 | 32988 ft | 466 kts | 60° |
| 2026-04-16 04:20 | -38.20465 | -66.35104 | 32978 ft | 460 kts | 60° |
| 2026-04-16 04:21 | -38.17437 | -66.27969 | 32997 ft | 459 kts | 60° |
| 2026-04-16 04:21 | -38.14404 | -66.20839 | 33000 ft | 459 kts | 60° |
| 2026-04-16 04:22 | -38.11362 | -66.13705 | 32998 ft | 459 kts | 60° |
| 2026-04-16 04:22 | -38.08314 | -66.06573 | 32994 ft | 460 kts | 60° |
| 2026-04-16 04:23 | -38.05260 | -65.99442 | 32998 ft | 460 kts | 60° |
| 2026-04-16 04:23 | -38.02200 | -65.92314 | 32996 ft | 460 kts | 60° |
| 2026-04-16 04:24 | -37.99136 | -65.85193 | 32997 ft | 460 kts | 60° |
| 2026-04-16 04:24 | -37.96067 | -65.78076 | 32997 ft | 460 kts | 60° |
| 2026-04-16 04:25 | -37.92995 | -65.70967 | 33000 ft | 460 kts | 60° |
| 2026-04-16 04:25 | -37.89922 | -65.63871 | 32999 ft | 459 kts | 60° |
| 2026-04-16 04:26 | -37.86846 | -65.56786 | 33004 ft | 459 kts | 60° |
| 2026-04-16 04:26 | -37.83769 | -65.49714 | 33001 ft | 459 kts | 60° |
| 2026-04-16 04:27 | -37.80689 | -65.42648 | 33003 ft | 458 kts | 60° |
| 2026-04-16 04:27 | -37.77613 | -65.35611 | 33006 ft | 458 kts | 60° |
| 2026-04-16 04:28 | -37.75031 | -65.29713 | 33005 ft | 457 kts | 59° |
| 2026-04-16 04:28 | -37.71946 | -65.22693 | 33012 ft | 457 kts | 59° |
| 2026-04-16 04:29 | -37.68862 | -65.15680 | 33007 ft | 457 kts | 59° |
| 2026-04-16 04:29 | -37.65777 | -65.08672 | 33011 ft | 457 kts | 59° |
| 2026-04-16 04:30 | -37.62685 | -65.01666 | 33015 ft | 457 kts | 59° |
| 2026-04-16 04:30 | -37.59612 | -64.94720 | 33017 ft | 456 kts | 58° |
| 2026-04-16 04:31 | -37.56513 | -64.87734 | 33010 ft | 457 kts | 58° |
| 2026-04-16 04:31 | -37.53409 | -64.80751 | 33009 ft | 457 kts | 58° |
| 2026-04-16 04:32 | -37.50302 | -64.73776 | 33012 ft | 456 kts | 58° |
| 2026-04-16 04:32 | -37.47194 | -64.66810 | 33009 ft | 456 kts | 58° |
| 2026-04-16 04:33 | -37.44062 | -64.59808 | 33012 ft | 456 kts | 58° |
| 2026-04-16 04:33 | -37.40965 | -64.52899 | 33012 ft | 456 kts | 58° |
| 2026-04-16 04:34 | -37.37847 | -64.45958 | 33008 ft | 456 kts | 58° |
| 2026-04-16 04:34 | -37.34728 | -64.39025 | 33005 ft | 455 kts | 57° |
| 2026-04-16 04:35 | -37.31594 | -64.32113 | 33004 ft | 455 kts | 56° |
| 2026-04-16 04:35 | -37.28440 | -64.25230 | 33005 ft | 454 kts | 56° |
| 2026-04-16 04:36 | -37.25265 | -64.18316 | 33007 ft | 454 kts | 56° |
| 2026-04-16 04:36 | -37.22133 | -64.11499 | 33008 ft | 453 kts | 56° |
| 2026-04-16 04:37 | -37.18984 | -64.04656 | 32991 ft | 453 kts | 56° |
| 2026-04-16 04:37 | -37.15816 | -63.97782 | 33005 ft | 452 kts | 55° |
| 2026-04-16 04:38 | -37.12688 | -63.91010 | 33008 ft | 451 kts | 55° |
| 2026-04-16 04:38 | -37.09541 | -63.84213 | 33007 ft | 451 kts | 55° |
| 2026-04-16 04:39 | -37.06394 | -63.77428 | 33008 ft | 450 kts | 55° |
| 2026-04-16 04:39 | -37.03245 | -63.70654 | 33002 ft | 450 kts | 54° |
| 2026-04-16 04:40 | -37.00098 | -63.63897 | 33006 ft | 449 kts | 54° |
| 2026-04-16 04:40 | -36.96950 | -63.57154 | 33006 ft | 449 kts | 54° |
| 2026-04-16 04:41 | -36.93802 | -63.50423 | 33007 ft | 448 kts | 54° |
| 2026-04-16 04:41 | -36.90654 | -63.43705 | 33001 ft | 448 kts | 54° |
| 2026-04-16 04:42 | -36.87505 | -63.36999 | 32997 ft | 447 kts | 54° |
| 2026-04-16 04:42 | -36.84359 | -63.30314 | 33007 ft | 446 kts | 54° |
| 2026-04-16 04:43 | -36.81213 | -63.23642 | 33005 ft | 446 kts | 53° |
| 2026-04-16 04:43 | -36.78065 | -63.16979 | 33005 ft | 446 kts | 53° |
| 2026-04-16 04:44 | -36.74915 | -63.10324 | 32995 ft | 445 kts | 53° |
| 2026-04-16 04:44 | -36.71766 | -63.03685 | 32999 ft | 445 kts | 53° |
| 2026-04-16 04:45 | -36.68613 | -62.97051 | 33002 ft | 444 kts | 53° |
| 2026-04-16 04:45 | -36.65455 | -62.90420 | 33001 ft | 444 kts | 53° |
| 2026-04-16 04:46 | -36.62298 | -62.83804 | 33004 ft | 444 kts | 53° |
| 2026-04-16 04:46 | -36.59161 | -62.77242 | 32997 ft | 443 kts | 53° |
| 2026-04-16 04:47 | -36.56006 | -62.70657 | 32999 ft | 443 kts | 53° |
| 2026-04-16 04:47 | -36.52849 | -62.64083 | 32993 ft | 442 kts | 52° |
| 2026-04-16 04:48 | -36.49526 | -62.57676 | 32996 ft | 441 kts | 51° |
| 2026-04-16 04:48 | -36.46349 | -62.51132 | 32969 ft | 443 kts | 53° |
| 2026-04-16 04:49 | -36.43228 | -62.44537 | 32990 ft | 443 kts | 53° |
| 2026-04-16 04:49 | -36.40082 | -62.37968 | 32996 ft | 443 kts | 53° |
| 2026-04-16 04:50 | -36.36909 | -62.31414 | 32992 ft | 443 kts | 53° |
| 2026-04-16 04:50 | -36.33720 | -62.24862 | 32989 ft | 444 kts | 52° |
| 2026-04-16 04:51 | -36.30526 | -62.18314 | 32982 ft | 444 kts | 53° |
| 2026-04-16 04:51 | -36.27324 | -62.11761 | 32990 ft | 445 kts | 52° |
| 2026-04-16 04:52 | -36.24113 | -62.05203 | 32990 ft | 446 kts | 52° |
| 2026-04-16 04:52 | -36.20892 | -61.98635 | 32986 ft | 446 kts | 52° |
| 2026-04-16 04:53 | -36.17663 | -61.92063 | 33022 ft | 447 kts | 53° |
| 2026-04-16 04:53 | -36.14424 | -61.85486 | 32987 ft | 448 kts | 53° |
| 2026-04-16 04:54 | -36.11185 | -61.78917 | 32978 ft | 447 kts | 53° |
| 2026-04-16 04:54 | -36.07940 | -61.72350 | 32987 ft | 447 kts | 53° |
| 2026-04-16 04:55 | -36.04702 | -61.65809 | 32982 ft | 446 kts | 53° |
| 2026-04-16 04:55 | -36.01462 | -61.59278 | 32969 ft | 445 kts | 53° |
| 2026-04-16 04:56 | -35.98226 | -61.52769 | 32981 ft | 444 kts | 53° |
| 2026-04-16 04:56 | -35.94989 | -61.46271 | 32980 ft | 444 kts | 53° |
| 2026-04-16 04:57 | -35.91750 | -61.39781 | 32981 ft | 444 kts | 53° |
| 2026-04-16 04:57 | -35.88508 | -61.33295 | 32958 ft | 444 kts | 53° |
| 2026-04-16 04:58 | -35.85264 | -61.26818 | 32974 ft | 444 kts | 53° |
| 2026-04-16 04:58 | -35.82013 | -61.20341 | 32979 ft | 444 kts | 53° |
| 2026-04-16 04:59 | -35.78784 | -61.13918 | 32977 ft | 444 kts | 53° |
| 2026-04-16 04:59 | -35.75529 | -61.07456 | 32976 ft | 444 kts | 53° |
| 2026-04-16 05:00 | -35.72250 | -61.00960 | 32980 ft | 444 kts | 53° |
| 2026-04-16 05:00 | -35.69011 | -60.94553 | 32977 ft | 443 kts | 53° |
| 2026-04-16 05:01 | -35.65753 | -60.88120 | 32968 ft | 443 kts | 53° |
| 2026-04-16 05:01 | -35.62490 | -60.81691 | 32968 ft | 443 kts | 53° |
| 2026-04-16 05:02 | -35.59224 | -60.75267 | 32964 ft | 443 kts | 53° |
| 2026-04-16 05:02 | -35.55959 | -60.68858 | 32948 ft | 442 kts | 53° |
| 2026-04-16 05:03 | -35.52734 | -60.62532 | 32538 ft | 430 kts | 53° |
| 2026-04-16 05:03 | -35.51157 | -60.59440 | 32119 ft | 426 kts | 53° |
| 2026-04-16 05:04 | -35.48037 | -60.53342 | 31313 ft | 419 kts | 53° |
| 2026-04-16 05:04 | -35.46492 | -60.50328 | 30899 ft | 416 kts | 53° |
| 2026-04-16 05:04 | -35.44955 | -60.47333 | 30478 ft | 414 kts | 53° |
| 2026-04-16 05:04 | -35.43423 | -60.44351 | 30050 ft | 412 kts | 54° |
| 2026-04-16 05:05 | -35.41900 | -60.41386 | 29592 ft | 410 kts | 54° |
| 2026-04-16 05:05 | -35.40382 | -60.38435 | 29133 ft | 407 kts | 54° |
| 2026-04-16 05:05 | -35.38878 | -60.35513 | 28691 ft | 404 kts | 54° |
| 2026-04-16 05:05 | -35.37387 | -60.32616 | 28261 ft | 401 kts | 54° |
| 2026-04-16 05:06 | -35.35902 | -60.29735 | 27834 ft | 398 kts | 54° |
| 2026-04-16 05:06 | -35.34428 | -60.26878 | 27421 ft | 395 kts | 54° |
| 2026-04-16 05:06 | -35.32963 | -60.24040 | 27008 ft | 393 kts | 54° |
| 2026-04-16 05:06 | -35.31508 | -60.21225 | 26598 ft | 391 kts | 54° |
| 2026-04-16 05:07 | -35.30058 | -60.18422 | 26187 ft | 389 kts | 54° |
| 2026-04-16 05:07 | -35.28612 | -60.15629 | 25754 ft | 387 kts | 54° |
| 2026-04-16 05:07 | -35.27174 | -60.12854 | 25352 ft | 385 kts | 54° |
| 2026-04-16 05:07 | -35.25740 | -60.10087 | 24936 ft | 384 kts | 55° |
| 2026-04-16 05:08 | -35.24309 | -60.07330 | 24525 ft | 383 kts | 55° |
| 2026-04-16 05:08 | -35.22881 | -60.04580 | 24109 ft | 383 kts | 55° |
| 2026-04-16 05:08 | -35.21454 | -60.01834 | 23700 ft | 382 kts | 55° |
| 2026-04-16 05:08 | -35.20030 | -59.99096 | 23247 ft | 381 kts | 55° |
| 2026-04-16 05:09 | -35.18610 | -59.96368 | 22796 ft | 379 kts | 55° |
| 2026-04-16 05:09 | -35.17657 | -59.94536 | 22532 ft | 378 kts | 55° |
| 2026-04-16 05:09 | -35.16250 | -59.91837 | 22124 ft | 375 kts | 56° |
| 2026-04-16 05:09 | -35.14853 | -59.89158 | 21724 ft | 373 kts | 56° |
| 2026-04-16 05:10 | -35.13463 | -59.86496 | 21322 ft | 370 kts | 56° |
| 2026-04-16 05:10 | -35.12082 | -59.83856 | 20927 ft | 368 kts | 56° |
| 2026-04-16 05:10 | -35.10710 | -59.81230 | 20542 ft | 366 kts | 57° |
| 2026-04-16 05:10 | -35.09342 | -59.78618 | 20147 ft | 364 kts | 57° |
| 2026-04-16 05:11 | -35.07981 | -59.76017 | 19757 ft | 363 kts | 57° |
| 2026-04-16 05:11 | -35.06626 | -59.73431 | 19356 ft | 362 kts | 57° |
| 2026-04-16 05:11 | -35.05272 | -59.70848 | 18971 ft | 360 kts | 57° |
| 2026-04-16 05:11 | -35.03926 | -59.68280 | 18583 ft | 359 kts | 58° |
| 2026-04-16 05:12 | -35.02581 | -59.65718 | 18188 ft | 358 kts | 58° |
| 2026-04-16 05:12 | -35.01257 | -59.63196 | 17768 ft | 356 kts | 58° |
| 2026-04-16 05:12 | -34.99907 | -59.60627 | 17363 ft | 354 kts | 58° |
| 2026-04-16 05:12 | -34.98584 | -59.58111 | 16978 ft | 351 kts | 58° |
| 2026-04-16 05:13 | -34.97271 | -59.55618 | 16596 ft | 349 kts | 58° |
| 2026-04-16 05:13 | -34.95967 | -59.53141 | 16221 ft | 346 kts | 58° |
| 2026-04-16 05:13 | -34.94685 | -59.50711 | 15847 ft | 344 kts | 58° |
| 2026-04-16 05:13 | -34.93380 | -59.48238 | 15479 ft | 342 kts | 58° |
| 2026-04-16 05:14 | -34.92099 | -59.45810 | 15108 ft | 340 kts | 58° |
| 2026-04-16 05:14 | -34.90822 | -59.43394 | 14724 ft | 339 kts | 58° |
| 2026-04-16 05:14 | -34.89551 | -59.40989 | 14354 ft | 337 kts | 58° |
| 2026-04-16 05:14 | -34.88281 | -59.38588 | 13979 ft | 336 kts | 58° |
| 2026-04-16 05:15 | -34.87016 | -59.36198 | 13571 ft | 335 kts | 58° |
| 2026-04-16 05:15 | -34.85775 | -59.33857 | 13186 ft | 333 kts | 58° |
| 2026-04-16 05:15 | -34.84522 | -59.31494 | 12809 ft | 331 kts | 58° |
| 2026-04-16 05:15 | -34.83280 | -59.29153 | 12435 ft | 328 kts | 58° |
| 2026-04-16 05:16 | -34.82044 | -59.26827 | 12068 ft | 326 kts | 58° |
| 2026-04-16 05:16 | -34.80817 | -59.24517 | 11701 ft | 324 kts | 58° |
| 2026-04-16 05:16 | -34.79601 | -59.22229 | 11340 ft | 321 kts | 58° |
| 2026-04-16 05:16 | -34.78392 | -59.19957 | 10979 ft | 319 kts | 58° |
| 2026-04-16 05:17 | -34.77190 | -59.17700 | 10619 ft | 317 kts | 58° |
| 2026-04-16 05:17 | -34.75997 | -59.15458 | 10323 ft | 313 kts | 58° |
| 2026-04-16 05:17 | -34.74832 | -59.13272 | 10139 ft | 305 kts | 58° |
| 2026-04-16 05:17 | -34.73696 | -59.11141 | 10003 ft | 295 kts | 59° |
| 2026-04-16 05:18 | -34.72593 | -59.09075 | 9857 ft | 288 kts | 58° |
| 2026-04-16 05:18 | -34.71529 | -59.07082 | 9698 ft | 279 kts | 59° |
| 2026-04-16 05:18 | -34.70458 | -59.05074 | 9258 ft | 283 kts | 59° |
| 2026-04-16 05:18 | -34.69385 | -59.03066 | 8907 ft | 283 kts | 59° |
| 2026-04-16 05:19 | -34.68318 | -59.01069 | 8596 ft | 281 kts | 58° |
| 2026-04-16 05:19 | -34.67257 | -58.99087 | 8286 ft | 279 kts | 59° |
| 2026-04-16 05:19 | -34.66205 | -58.97124 | 7986 ft | 277 kts | 59° |
| 2026-04-16 05:19 | -34.65158 | -58.95168 | 7688 ft | 275 kts | 59° |
| 2026-04-16 05:20 | -34.64120 | -58.93231 | 7386 ft | 272 kts | 59° |
| 2026-04-16 05:20 | -34.63095 | -58.91314 | 7116 ft | 270 kts | 59° |
| 2026-04-16 05:20 | -34.62075 | -58.89409 | 6826 ft | 268 kts | 60° |
| 2026-04-16 05:20 | -34.61063 | -58.87528 | 6523 ft | 265 kts | 60° |
| 2026-04-16 05:21 | -34.60060 | -58.85660 | 6237 ft | 263 kts | 60° |
| 2026-04-16 05:21 | -34.59064 | -58.83808 | 5930 ft | 261 kts | 60° |
| 2026-04-16 05:21 | -34.58080 | -58.81980 | 5619 ft | 255 kts | 60° |
| 2026-04-16 05:21 | -34.57121 | -58.80199 | 5345 ft | 251 kts | 60° |
| 2026-04-16 05:22 | -34.56171 | -58.78436 | 5077 ft | 249 kts | 60° |
| 2026-04-16 05:22 | -34.55228 | -58.76684 | 4810 ft | 247 kts | 60° |
| 2026-04-16 05:22 | -34.54287 | -58.74940 | 4527 ft | 247 kts | 61° |
| 2026-04-16 05:22 | -34.53350 | -58.73199 | 4244 ft | 246 kts | 61° |
| 2026-04-16 05:23 | -34.52421 | -58.71471 | 3985 ft | 244 kts | 60° |
| 2026-04-16 05:23 | -34.51496 | -58.69756 | 3719 ft | 242 kts | 61° |
| 2026-04-16 05:23 | -34.50576 | -58.68049 | 3461 ft | 242 kts | 61° |
| 2026-04-16 05:23 | -34.49673 | -58.66376 | 3383 ft | 233 kts | 61° |
| 2026-04-16 05:24 | -34.48804 | -58.64771 | 3314 ft | 221 kts | 61° |
| 2026-04-16 05:24 | -34.47986 | -58.63261 | 3203 ft | 208 kts | 61° |
| 2026-04-16 05:24 | -34.47218 | -58.61845 | 3103 ft | 194 kts | 62° |
| 2026-04-16 05:24 | -34.46600 | -58.60469 | 2968 ft | 177 kts | 82° |
| 2026-04-16 05:25 | -34.46779 | -58.59112 | 2905 ft | 162 kts | 111° |
| 2026-04-16 05:25 | -34.47224 | -58.57857 | 2722 ft | 160 kts | 116° |
| 2026-04-16 05:25 | -34.47717 | -58.56680 | 2522 ft | 153 kts | 116° |
| 2026-04-16 05:25 | -34.48221 | -58.55570 | 2338 ft | 148 kts | 120° |
| 2026-04-16 05:26 | -34.48765 | -58.54517 | 2176 ft | 147 kts | 122° |
| 2026-04-16 05:26 | -34.49328 | -58.53482 | 2114 ft | 149 kts | 122° |
| 2026-04-16 05:26 | -34.49906 | -58.52435 | 1922 ft | 148 kts | 122° |
| 2026-04-16 05:26 | -34.50468 | -58.51422 | 1719 ft | 142 kts | 122° |
| 2026-04-16 05:27 | -34.51011 | -58.50441 | 1548 ft | 139 kts | 122° |
| 2026-04-16 05:27 | -34.51552 | -58.49465 | 1405 ft | 141 kts | 122° |
| 2026-04-16 05:27 | -34.52091 | -58.48493 | 1254 ft | 135 kts | 123° |
| 2026-04-16 05:27 | -34.52611 | -58.47555 | 1053 ft | 131 kts | 123° |
| 2026-04-16 05:28 | -34.53119 | -58.46640 | 857 ft | 134 kts | 123° |
| 2026-04-16 05:28 | -34.53640 | -58.45700 | 686 ft | 134 kts | 125° |
| 2026-04-16 05:28 | -34.54160 | -58.44731 | 530 ft | 140 kts | 124° |
| 2026-04-16 05:28 | -34.54696 | -58.43760 | 322 ft | 137 kts | 124° |
| 2026-04-16 05:29 | -34.55224 | -58.42825 | 115 ft | 130 kts | 124° |
| 2026-04-16 05:29 | -34.55701 | -58.41962 | 27 ft | 106 kts | 127° |
| 2026-04-16 05:29 | -34.55936 | -58.41559 | 22 ft | 36 kts | 124° |
| 2026-04-16 05:29 | -34.56051 | -58.41352 | 26 ft | 26 kts | 124° |
| 2026-04-16 05:30 | -34.56148 | -58.41177 | 28 ft | 19 kts | 124° |
| 2026-04-16 05:30 | -34.56190 | -58.41075 | 26 ft | 7 kts | 92° |
| 2026-04-16 05:30 | -34.56172 | -58.41023 | 28 ft | 5 kts | 62° |
| 2026-04-16 05:30 | -34.56156 | -58.40989 | 24 ft | 5 kts | 54° |
| 2026-04-16 05:31 | -34.56125 | -58.40989 | 24 ft | 5 kts | 336° |
| 2026-04-16 05:31 | -34.56102 | -58.41017 | 28 ft | 5 kts | 310° |
| 2026-04-16 05:31 | -34.56083 | -58.41047 | 27 ft | 5 kts | 308° |
| 2026-04-16 05:31 | -34.56063 | -58.41077 | 24 ft | 5 kts | 307° |
| 2026-04-16 05:32 | -34.56037 | -58.41120 | 25 ft | 8 kts | 307° |
| 2026-04-16 05:32 | -34.55998 | -58.41182 | 26 ft | 9 kts | 307° |
| 2026-04-16 05:32 | -34.55963 | -58.41238 | 24 ft | 7 kts | 307° |
| 2026-04-16 05:32 | -34.55935 | -58.41285 | 25 ft | 6 kts | 304° |
| 2026-04-16 05:33 | -34.55900 | -58.41306 | 26 ft | 6 kts | 8° |
| 2026-04-16 05:33 | -34.55865 | -58.41281 | 24 ft | 6 kts | 30° |
| 2026-04-16 05:33 | -34.55835 | -58.41281 | 26 ft | 3 kts | 356° |
| 2026-04-16 05:33 | -34.55817 | -58.41269 | 28 ft | 3 kts | 41° |
| 2026-04-16 05:34 | -34.55802 | -58.41254 | 24 ft | 3 kts | 38° |
| 2026-04-16 05:34 | -34.55798 | -58.41250 | 24 ft | 0 kts | 38° |